sensor_id;sensor_type;location;lat;lon;timestamp;pressure;altitude;pressure_sealevel;temperature;humidity
30081;BME280;16902;50.816;12.828;2022-10-26T00:02:02;98024.19;;;5.09;100.00
30081;BME280;16902;50.816;12.828;2022-10-26T00:07:03;98024.34;;;5.08;100.00
30081;BME280;16902;50.816;12.828;2022-10-26T00:12:05;98019.84;;;5.10;100.00
30081;BME280;16902;50.816;12.828;2022-10-26T00:17:07;98009.81;;;4.97;100.00
30081;BME280;16902;50.816;12.828;2022-10-26T00:22:08;98014.56;;;4.92;100.00
30081;BME280;16902;50.816;12.828;2022-10-26T00:27:10;98013.91;;;4.90;100.00
30081;BME280;16902;50.816;12.828;2022-10-26T00:32:12;98015.69;;;4.89;100.00
30081;BME280;16902;50.816;12.828;2022-10-26T00:37:13;98013.09;;;4.89;100.00
30081;BME280;16902;50.816;12.828;2022-10-26T00:42:18;98015.69;;;4.89;100.00
30081;BME280;16902;50.816;12.828;2022-10-26T00:47:39;98017.44;;;4.89;100.00
30081;BME280;16902;50.816;12.828;2022-10-26T00:52:42;98016.09;;;4.75;100.00
30081;BME280;16902;50.816;12.828;2022-10-26T00:57:44;98020.28;;;4.76;100.00
30081;BME280;16902;50.816;12.828;2022-10-26T01:02:46;98022.47;;;4.71;100.00
30081;BME280;16902;50.816;12.828;2022-10-26T01:07:50;98015.81;;;4.69;100.00
30081;BME280;16902;50.816;12.828;2022-10-26T01:12:54;98019.34;;;4.68;100.00
30081;BME280;16902;50.816;12.828;2022-10-26T01:18:07;98010.94;;;4.66;100.00
30081;BME280;16902;50.816;12.828;2022-10-26T01:23:30;98005.63;;;4.67;100.00
30081;BME280;16902;50.816;12.828;2022-10-26T01:34:20;98019.22;;;4.69;100.00
30081;BME280;16902;50.816;12.828;2022-10-26T01:39:29;98009.19;;;4.66;100.00
30081;BME280;16902;50.816;12.828;2022-10-26T01:44:41;98005.63;;;4.57;100.00
30081;BME280;16902;50.816;12.828;2022-10-26T01:49:48;98003.59;;;4.51;100.00
30081;BME280;16902;50.816;12.828;2022-10-26T01:54:51;97993.72;;;4.47;100.00
30081;BME280;16902;50.816;12.828;2022-10-26T02:00:09;97997.50;;;4.43;100.00
30081;BME280;16902;50.816;12.828;2022-10-26T02:05:40;97989.34;;;4.37;100.00
30081;BME280;16902;50.816;12.828;2022-10-26T02:15:53;97988.53;;;4.37;100.00
30081;BME280;16902;50.816;12.828;2022-10-26T02:21:02;97977.13;;;4.30;100.00
30081;BME280;16902;50.816;12.828;2022-10-26T02:26:08;97981.22;;;4.32;100.00
30081;BME280;16902;50.816;12.828;2022-10-26T02:31:13;97986.91;;;4.26;100.00
30081;BME280;16902;50.816;12.828;2022-10-26T02:36:20;97980.81;;;4.27;100.00
30081;BME280;16902;50.816;12.828;2022-10-26T02:41:25;97974.44;;;4.31;100.00
30081;BME280;16902;50.816;12.828;2022-10-26T02:46:28;97975.78;;;4.26;100.00
30081;BME280;16902;50.816;12.828;2022-10-26T02:51:38;97976.19;;;4.31;100.00
30081;BME280;16902;50.816;12.828;2022-10-26T02:56:57;97977.13;;;4.30;100.00
30081;BME280;16902;50.816;12.828;2022-10-26T03:02:01;97961.41;;;4.33;100.00
30081;BME280;16902;50.816;12.828;2022-10-26T03:07:03;97961.81;;;4.28;100.00
30081;BME280;16902;50.816;12.828;2022-10-26T03:12:05;97963.84;;;4.25;100.00
30081;BME280;16902;50.816;12.828;2022-10-26T03:17:07;97966.81;;;4.30;100.00
30081;BME280;16902;50.816;12.828;2022-10-26T03:22:08;97955.44;;;4.32;100.00
30081;BME280;16902;50.816;12.828;2022-10-26T03:27:10;97960.34;;;4.35;100.00
30081;BME280;16902;50.816;12.828;2022-10-26T03:32:11;97961.66;;;4.39;100.00
30081;BME280;16902;50.816;12.828;2022-10-26T03:37:13;97962.22;;;4.43;100.00
30081;BME280;16902;50.816;12.828;2022-10-26T03:42:15;97964.66;;;4.45;100.00
30081;BME280;16902;50.816;12.828;2022-10-26T03:47:16;97950.84;;;4.46;100.00
30081;BME280;16902;50.816;12.828;2022-10-26T03:52:18;97948.78;;;4.49;100.00
30081;BME280;16902;50.816;12.828;2022-10-26T03:57:19;97947.28;;;4.56;100.00
30081;BME280;16902;50.816;12.828;2022-10-26T04:02:21;97960.31;;;4.74;100.00
30081;BME280;16902;50.816;12.828;2022-10-26T04:07:22;97962.75;;;4.66;100.00
30081;BME280;16902;50.816;12.828;2022-10-26T04:12:24;97941.03;;;4.49;100.00
30081;BME280;16902;50.816;12.828;2022-10-26T04:17:25;97948.53;;;4.43;100.00
30081;BME280;16902;50.816;12.828;2022-10-26T04:22:27;97950.03;;;4.45;100.00
30081;BME280;16902;50.816;12.828;2022-10-26T04:27:29;97946.34;;;4.48;100.00
30081;BME280;16902;50.816;12.828;2022-10-26T04:32:30;97950.53;;;4.39;100.00
30081;BME280;16902;50.816;12.828;2022-10-26T04:37:32;97955.69;;;4.39;100.00
30081;BME280;16902;50.816;12.828;2022-10-26T04:42:44;97949.47;;;4.32;100.00
30081;BME280;16902;50.816;12.828;2022-10-26T04:47:46;97953.41;;;4.26;100.00
30081;BME280;16902;50.816;12.828;2022-10-26T04:52:49;97941.88;;;4.21;100.00
30081;BME280;16902;50.816;12.828;2022-10-26T04:57:51;97955.97;;;4.17;100.00
30081;BME280;16902;50.816;12.828;2022-10-26T05:02:59;97951.22;;;4.12;100.00
30081;BME280;16902;50.816;12.828;2022-10-26T05:08:01;97951.09;;;4.13;100.00
30081;BME280;16902;50.816;12.828;2022-10-26T05:13:03;97944.97;;;4.24;100.00
30081;BME280;16902;50.816;12.828;2022-10-26T05:18:05;97942.28;;;4.35;100.00
30081;BME280;16902;50.816;12.828;2022-10-26T05:23:09;97940.94;;;4.41;100.00
30081;BME280;16902;50.816;12.828;2022-10-26T05:28:12;97941.88;;;4.50;100.00
30081;BME280;16902;50.816;12.828;2022-10-26T05:33:14;97941.75;;;4.51;100.00
30081;BME280;16902;50.816;12.828;2022-10-26T05:38:16;97943.22;;;4.54;100.00
30081;BME280;16902;50.816;12.828;2022-10-26T05:43:20;97945.78;;;4.73;100.00
30081;BME280;16902;50.816;12.828;2022-10-26T05:48:22;97938.56;;;4.77;100.00
30081;BME280;16902;50.816;12.828;2022-10-26T05:53:23;97949.44;;;4.80;100.00
30081;BME280;16902;50.816;12.828;2022-10-26T05:58:25;97951.44;;;4.86;100.00
30081;BME280;16902;50.816;12.828;2022-10-26T06:08:44;97958.50;;;4.94;100.00
30081;BME280;16902;50.816;12.828;2022-10-26T06:13:46;97962.53;;;5.06;100.00
30081;BME280;16902;50.816;12.828;2022-10-26T06:34:53;97973.53;;;5.83;100.00
30081;BME280;16902;50.816;12.828;2022-10-26T06:39:57;97978.91;;;5.89;100.00
30081;BME280;16902;50.816;12.828;2022-10-26T06:45:00;97986.16;;;5.96;100.00
30081;BME280;16902;50.816;12.828;2022-10-26T06:55:25;97972.81;;;6.54;100.00
30081;BME280;16902;50.816;12.828;2022-10-26T07:00:29;97974.34;;;6.82;100.00
30081;BME280;16902;50.816;12.828;2022-10-26T07:05:32;97980.16;;;7.10;100.00
30081;BME280;16902;50.816;12.828;2022-10-26T07:10:34;97984.19;;;7.31;100.00
30081;BME280;16902;50.816;12.828;2022-10-26T07:15:39;97981.69;;;7.47;100.00
30081;BME280;16902;50.816;12.828;2022-10-26T07:20:41;97978.69;;;7.60;100.00
30081;BME280;16902;50.816;12.828;2022-10-26T07:25:43;97975.50;;;7.74;100.00
30081;BME280;16902;50.816;12.828;2022-10-26T07:30:44;97982.34;;;7.91;100.00
30081;BME280;16902;50.816;12.828;2022-10-26T07:35:46;97975.78;;;8.13;100.00
30081;BME280;16902;50.816;12.828;2022-10-26T07:40:47;97975.00;;;8.29;100.00
30081;BME280;16902;50.816;12.828;2022-10-26T07:45:50;97983.00;;;8.60;100.00
30081;BME280;16902;50.816;12.828;2022-10-26T07:50:52;97980.91;;;9.05;100.00
30081;BME280;16902;50.816;12.828;2022-10-26T07:55:55;97984.66;;;9.58;100.00
30081;BME280;16902;50.816;12.828;2022-10-26T08:06:08;97989.25;;;10.72;100.00
30081;BME280;16902;50.816;12.828;2022-10-26T08:11:10;97998.03;;;11.31;100.00
30081;BME280;16902;50.816;12.828;2022-10-26T08:16:12;97999.63;;;12.06;100.00
30081;BME280;16902;50.816;12.828;2022-10-26T08:21:15;98003.78;;;12.37;100.00
30081;BME280;16902;50.816;12.828;2022-10-26T08:26:30;98019.03;;;12.55;100.00
30081;BME280;16902;50.816;12.828;2022-10-26T08:31:32;98011.72;;;13.15;100.00
30081;BME280;16902;50.816;12.828;2022-10-26T08:36:34;98010.03;;;13.28;100.00
30081;BME280;16902;50.816;12.828;2022-10-26T08:41:39;98006.50;;;13.71;100.00
30081;BME280;16902;50.816;12.828;2022-10-26T08:46:44;98008.84;;;14.00;100.00
30081;BME280;16902;50.816;12.828;2022-10-26T08:51:49;98011.69;;;14.05;100.00
30081;BME280;16902;50.816;12.828;2022-10-26T08:56:56;98009.75;;;14.27;100.00
30081;BME280;16902;50.816;12.828;2022-10-26T09:01:58;98017.03;;;14.45;100.00
30081;BME280;16902;50.816;12.828;2022-10-26T09:12:55;98015.16;;;15.20;100.00
30081;BME280;16902;50.816;12.828;2022-10-26T09:23:39;98011.50;;;16.12;100.00
30081;BME280;16902;50.816;12.828;2022-10-26T09:28:48;98012.94;;;16.15;100.00
30081;BME280;16902;50.816;12.828;2022-10-26T09:33:50;98018.31;;;16.27;100.00
30081;BME280;16902;50.816;12.828;2022-10-26T09:39:18;98032.34;;;16.52;100.00
30081;BME280;16902;50.816;12.828;2022-10-26T09:44:35;98031.03;;;16.75;100.00
30081;BME280;16902;50.816;12.828;2022-10-26T09:49:44;98034.78;;;16.54;100.00
30081;BME280;16902;50.816;12.828;2022-10-26T09:54:49;98041.13;;;16.71;100.00
30081;BME280;16902;50.816;12.828;2022-10-26T09:59:51;98037.69;;;16.70;100.00
30081;BME280;16902;50.816;12.828;2022-10-26T10:04:52;98041.97;;;16.65;100.00
30081;BME280;16902;50.816;12.828;2022-10-26T10:10:14;98051.44;;;16.73;100.00
30081;BME280;16902;50.816;12.828;2022-10-26T10:15:19;98056.25;;;16.82;100.00
30081;BME280;16902;50.816;12.828;2022-10-26T10:20:30;98042.84;;;17.22;100.00
30081;BME280;16902;50.816;12.828;2022-10-26T10:25:35;98053.44;;;17.34;100.00
30081;BME280;16902;50.816;12.828;2022-10-26T10:30:37;98048.03;;;17.29;100.00
30081;BME280;16902;50.816;12.828;2022-10-26T10:35:47;98056.06;;;17.09;100.00
30081;BME280;16902;50.816;12.828;2022-10-26T10:40:59;98064.84;;;16.96;100.00
30081;BME280;16902;50.816;12.828;2022-10-26T10:46:04;98059.03;;;16.87;100.00
30081;BME280;16902;50.816;12.828;2022-10-26T10:51:07;98063.03;;;16.96;100.00
30081;BME280;16902;50.816;12.828;2022-10-26T11:01:31;98069.00;;;17.10;100.00
30081;BME280;16902;50.816;12.828;2022-10-26T11:06:40;98069.97;;;17.16;100.00
30081;BME280;16902;50.816;12.828;2022-10-26T11:11:49;98072.38;;;16.92;100.00
30081;BME280;16902;50.816;12.828;2022-10-26T11:17:18;98076.16;;;16.58;100.00
30081;BME280;16902;50.816;12.828;2022-10-26T11:22:21;98069.56;;;16.49;100.00
30081;BME280;16902;50.816;12.828;2022-10-26T11:32:53;98064.50;;;16.54;100.00
30081;BME280;16902;50.816;12.828;2022-10-26T11:38:03;98060.06;;;16.48;100.00
30081;BME280;16902;50.816;12.828;2022-10-26T11:48:52;98061.19;;;16.65;100.00
30081;BME280;16902;50.816;12.828;2022-10-26T11:53:57;98068.25;;;17.53;100.00
30081;BME280;16902;50.816;12.828;2022-10-26T11:59:02;98066.91;;;17.94;100.00
30081;BME280;16902;50.816;12.828;2022-10-26T12:04:05;98061.31;;;18.20;100.00
30081;BME280;16902;50.816;12.828;2022-10-26T12:09:13;98057.31;;;18.00;100.00
30081;BME280;16902;50.816;12.828;2022-10-26T12:14:28;98055.53;;;17.75;100.00
30081;BME280;16902;50.816;12.828;2022-10-26T12:25:28;98059.03;;;18.24;100.00
30081;BME280;16902;50.816;12.828;2022-10-26T12:30:31;98060.09;;;18.53;100.00
30081;BME280;16902;50.816;12.828;2022-10-26T12:40:39;98062.94;;;18.52;100.00
30081;BME280;16902;50.816;12.828;2022-10-26T12:45:42;98073.97;;;18.79;100.00
30081;BME280;16902;50.816;12.828;2022-10-26T12:50:44;98066.16;;;18.72;100.00
30081;BME280;16902;50.816;12.828;2022-10-26T12:55:53;98067.63;;;18.01;100.00
30081;BME280;16902;50.816;12.828;2022-10-26T13:11:29;98082.19;;;16.72;100.00
30081;BME280;16902;50.816;12.828;2022-10-26T13:16:32;98086.41;;;16.35;100.00
30081;BME280;16902;50.816;12.828;2022-10-26T13:21:45;98082.84;;;16.16;100.00
30081;BME280;16902;50.816;12.828;2022-10-26T13:32:08;98085.25;;;16.17;100.00
30081;BME280;16902;50.816;12.828;2022-10-26T13:37:20;98081.16;;;16.28;100.00
30081;BME280;16902;50.816;12.828;2022-10-26T13:42:31;98076.59;;;16.55;100.00
30081;BME280;16902;50.816;12.828;2022-10-26T13:47:59;98071.22;;;16.82;100.00
30081;BME280;16902;50.816;12.828;2022-10-26T13:53:25;98085.25;;;17.01;100.00
30081;BME280;16902;50.816;12.828;2022-10-26T14:03:34;98093.81;;;17.21;100.00
30081;BME280;16902;50.816;12.828;2022-10-26T14:08:38;98095.16;;;17.05;100.00
30081;BME280;16902;50.816;12.828;2022-10-26T14:13:41;98095.66;;;16.89;100.00
30081;BME280;16902;50.816;12.828;2022-10-26T14:18:43;98101.00;;;16.76;100.00
30081;BME280;16902;50.816;12.828;2022-10-26T14:23:48;98107.88;;;16.70;100.00
30081;BME280;16902;50.816;12.828;2022-10-26T14:28:55;98112.16;;;16.64;100.00
30081;BME280;16902;50.816;12.828;2022-10-26T14:33:59;98119.06;;;16.59;100.00
30081;BME280;16902;50.816;12.828;2022-10-26T14:39:07;98118.22;;;16.58;100.00
30081;BME280;16902;50.816;12.828;2022-10-26T14:44:17;98104.59;;;16.88;100.00
30081;BME280;16902;50.816;12.828;2022-10-26T14:49:25;98101.44;;;17.04;100.00
30081;BME280;16902;50.816;12.828;2022-10-26T14:54:27;98116.03;;;17.00;100.00
30081;BME280;16902;50.816;12.828;2022-10-26T14:59:30;98114.28;;;16.87;100.00
30081;BME280;16902;50.816;12.828;2022-10-26T15:04:40;98126.66;;;16.80;100.00
30081;BME280;16902;50.816;12.828;2022-10-26T15:09:44;98131.94;;;16.67;100.00
30081;BME280;16902;50.816;12.828;2022-10-26T15:14:46;98126.50;;;16.62;100.00
30081;BME280;16902;50.816;12.828;2022-10-26T15:19:50;98139.69;;;16.49;100.00
30081;BME280;16902;50.816;12.828;2022-10-26T15:24:57;98147.66;;;16.35;100.00
30081;BME280;16902;50.816;12.828;2022-10-26T15:30:26;98143.47;;;16.08;100.00
30081;BME280;16902;50.816;12.828;2022-10-26T15:35:30;98141.69;;;15.82;100.00
30081;BME280;16902;50.816;12.828;2022-10-26T15:40:32;98138.81;;;15.57;100.00
30081;BME280;16902;50.816;12.828;2022-10-26T15:45:35;98149.72;;;15.40;100.00
30081;BME280;16902;50.816;12.828;2022-10-26T15:50:38;98144.47;;;15.21;100.00
30081;BME280;16902;50.816;12.828;2022-10-26T15:55:41;98155.13;;;14.99;100.00
30081;BME280;16902;50.816;12.828;2022-10-26T16:00:43;98155.09;;;14.93;100.00
30081;BME280;16902;50.816;12.828;2022-10-26T16:05:45;98155.03;;;14.79;100.00
30081;BME280;16902;50.816;12.828;2022-10-26T16:10:47;98163.91;;;14.78;100.00
30081;BME280;16902;50.816;12.828;2022-10-26T16:15:48;98159.91;;;14.41;100.00
30081;BME280;16902;50.816;12.828;2022-10-26T16:20:50;98170.66;;;14.18;100.00
30081;BME280;16902;50.816;12.828;2022-10-26T16:25:51;98171.50;;;13.97;100.00
30081;BME280;16902;50.816;12.828;2022-10-26T16:30:58;98167.44;;;13.88;100.00
30081;BME280;16902;50.816;12.828;2022-10-26T16:36:00;98187.06;;;13.77;100.00
30081;BME280;16902;50.816;12.828;2022-10-26T16:41:10;98181.50;;;13.59;100.00
30081;BME280;16902;50.816;12.828;2022-10-26T16:46:15;98187.75;;;13.36;100.00
30081;BME280;16902;50.816;12.828;2022-10-26T16:51:17;98192.34;;;13.34;100.00
30081;BME280;16902;50.816;12.828;2022-10-26T16:56:21;98197.69;;;13.26;100.00
30081;BME280;16902;50.816;12.828;2022-10-26T17:01:24;98197.41;;;13.36;100.00
30081;BME280;16902;50.816;12.828;2022-10-26T17:06:26;98203.47;;;13.22;100.00
30081;BME280;16902;50.816;12.828;2022-10-26T17:11:27;98202.94;;;13.11;100.00
30081;BME280;16902;50.816;12.828;2022-10-26T17:16:29;98210.44;;;13.00;100.00
30081;BME280;16902;50.816;12.828;2022-10-26T17:21:34;98229.03;;;12.90;100.00
30081;BME280;16902;50.816;12.828;2022-10-26T17:26:36;98228.16;;;12.39;100.00
30081;BME280;16902;50.816;12.828;2022-10-26T17:31:38;98231.63;;;12.01;100.00
30081;BME280;16902;50.816;12.828;2022-10-26T17:36:40;98252.56;;;11.70;100.00
30081;BME280;16902;50.816;12.828;2022-10-26T17:41:42;98266.19;;;11.57;100.00
30081;BME280;16902;50.816;12.828;2022-10-26T17:46:44;98272.53;;;11.55;100.00
30081;BME280;16902;50.816;12.828;2022-10-26T17:51:45;98272.81;;;11.60;100.00
30081;BME280;16902;50.816;12.828;2022-10-26T17:56:47;98284.94;;;11.53;100.00
30081;BME280;16902;50.816;12.828;2022-10-26T18:01:49;98284.97;;;11.22;100.00
30081;BME280;16902;50.816;12.828;2022-10-26T18:06:50;98292.66;;;11.07;100.00
30081;BME280;16902;50.816;12.828;2022-10-26T18:11:52;98286.69;;;10.98;100.00
30081;BME280;16902;50.816;12.828;2022-10-26T18:16:56;98302.13;;;11.08;100.00
30081;BME280;16902;50.816;12.828;2022-10-26T18:21:58;98313.88;;;11.04;100.00
30081;BME280;16902;50.816;12.828;2022-10-26T18:27:00;98318.53;;;11.17;100.00
30081;BME280;16902;50.816;12.828;2022-10-26T18:32:02;98330.75;;;11.16;100.00
30081;BME280;16902;50.816;12.828;2022-10-26T18:37:04;98333.81;;;11.28;100.00
30081;BME280;16902;50.816;12.828;2022-10-26T18:42:05;98338.41;;;11.18;100.00
30081;BME280;16902;50.816;12.828;2022-10-26T18:47:07;98343.16;;;11.06;100.00
30081;BME280;16902;50.816;12.828;2022-10-26T18:52:09;98348.94;;;10.85;100.00
30081;BME280;16902;50.816;12.828;2022-10-26T18:57:10;98359.41;;;10.61;100.00
30081;BME280;16902;50.816;12.828;2022-10-26T19:02:13;98367.88;;;10.38;100.00
30081;BME280;16902;50.816;12.828;2022-10-26T19:07:15;98357.47;;;10.30;100.00
30081;BME280;16902;50.816;12.828;2022-10-26T19:12:16;98367.34;;;10.18;100.00
30081;BME280;16902;50.816;12.828;2022-10-26T19:17:18;98372.03;;;9.98;100.00
30081;BME280;16902;50.816;12.828;2022-10-26T19:22:20;98380.78;;;9.81;100.00
30081;BME280;16902;50.816;12.828;2022-10-26T19:27:21;98384.84;;;9.67;100.00
30081;BME280;16902;50.816;12.828;2022-10-26T19:32:26;98384.13;;;9.57;100.00
30081;BME280;16902;50.816;12.828;2022-10-26T19:37:29;98397.75;;;9.43;100.00
30081;BME280;16902;50.816;12.828;2022-10-26T19:42:30;98406.78;;;9.31;100.00
30081;BME280;16902;50.816;12.828;2022-10-26T19:47:32;98414.56;;;9.31;100.00
30081;BME280;16902;50.816;12.828;2022-10-26T19:52:34;98420.06;;;9.27;100.00
30081;BME280;16902;50.816;12.828;2022-10-26T19:57:36;98430.78;;;9.24;100.00
30081;BME280;16902;50.816;12.828;2022-10-26T20:02:38;98436.59;;;9.18;100.00
30081;BME280;16902;50.816;12.828;2022-10-26T20:07:40;98444.44;;;9.26;100.00
30081;BME280;16902;50.816;12.828;2022-10-26T20:12:41;98457.38;;;9.18;100.00
30081;BME280;16902;50.816;12.828;2022-10-26T20:17:43;98449.66;;;9.00;100.00
30081;BME280;16902;50.816;12.828;2022-10-26T20:22:45;98463.09;;;8.96;100.00
30081;BME280;16902;50.816;12.828;2022-10-26T20:27:46;98468.06;;;8.89;100.00
30081;BME280;16902;50.816;12.828;2022-10-26T20:32:48;98467.56;;;8.86;100.00
30081;BME280;16902;50.816;12.828;2022-10-26T20:37:51;98470.16;;;8.86;100.00
30081;BME280;16902;50.816;12.828;2022-10-26T20:42:54;98467.94;;;8.73;100.00
30081;BME280;16902;50.816;12.828;2022-10-26T20:47:57;98468.69;;;8.65;100.00
30081;BME280;16902;50.816;12.828;2022-10-26T20:53:09;98469.88;;;8.71;100.00
30081;BME280;16902;50.816;12.828;2022-10-26T21:03:32;98476.91;;;8.79;100.00
30081;BME280;16902;50.816;12.828;2022-10-26T21:08:34;98484.09;;;8.85;100.00
30081;BME280;16902;50.816;12.828;2022-10-26T21:13:35;98479.59;;;8.69;100.00
30081;BME280;16902;50.816;12.828;2022-10-26T21:18:37;98484.19;;;8.57;100.00
30081;BME280;16902;50.816;12.828;2022-10-26T21:23:39;98495.19;;;8.51;100.00
30081;BME280;16902;50.816;12.828;2022-10-26T21:28:43;98496.88;;;8.42;100.00
30081;BME280;16902;50.816;12.828;2022-10-26T21:33:46;98498.13;;;8.38;100.00
30081;BME280;16902;50.816;12.828;2022-10-26T21:38:48;98509.88;;;8.33;100.00
30081;BME280;16902;50.816;12.828;2022-10-26T21:43:50;98509.72;;;8.34;100.00
30081;BME280;16902;50.816;12.828;2022-10-26T21:49:09;98509.47;;;8.37;100.00
30081;BME280;16902;50.816;12.828;2022-10-26T21:54:10;98511.81;;;8.31;100.00
30081;BME280;16902;50.816;12.828;2022-10-26T21:59:12;98511.06;;;8.20;100.00
30081;BME280;16902;50.816;12.828;2022-10-26T22:04:14;98512.81;;;8.20;100.00
30081;BME280;16902;50.816;12.828;2022-10-26T22:09:15;98522.13;;;8.22;100.00
30081;BME280;16902;50.816;12.828;2022-10-26T22:14:17;98522.00;;;8.14;100.00
30081;BME280;16902;50.816;12.828;2022-10-26T22:19:19;98522.59;;;8.08;100.00
30081;BME280;16902;50.816;12.828;2022-10-26T22:24:21;98528.50;;;8.01;100.00
30081;BME280;16902;50.816;12.828;2022-10-26T22:29:22;98533.16;;;7.97;100.00
30081;BME280;16902;50.816;12.828;2022-10-26T22:34:24;98536.56;;;7.97;100.00
30081;BME280;16902;50.816;12.828;2022-10-26T22:39:26;98534.50;;;8.01;100.00
30081;BME280;16902;50.816;12.828;2022-10-26T22:44:27;98539.56;;;8.03;100.00
30081;BME280;16902;50.816;12.828;2022-10-26T22:49:29;98544.88;;;8.01;100.00
30081;BME280;16902;50.816;12.828;2022-10-26T22:54:30;98543.25;;;8.00;100.00
30081;BME280;16902;50.816;12.828;2022-10-26T22:59:32;98549.41;;;7.99;100.00
30081;BME280;16902;50.816;12.828;2022-10-26T23:04:34;98554.03;;;7.95;100.00
30081;BME280;16902;50.816;12.828;2022-10-26T23:09:35;98554.03;;;7.95;100.00
30081;BME280;16902;50.816;12.828;2022-10-26T23:14:37;98554.47;;;7.91;100.00
30081;BME280;16902;50.816;12.828;2022-10-26T23:19:38;98565.38;;;7.94;100.00
30081;BME280;16902;50.816;12.828;2022-10-26T23:24:40;98568.34;;;7.99;100.00
30081;BME280;16902;50.816;12.828;2022-10-26T23:29:42;98564.94;;;7.99;100.00
30081;BME280;16902;50.816;12.828;2022-10-26T23:34:45;98580.09;;;8.04;100.00
30081;BME280;16902;50.816;12.828;2022-10-26T23:39:46;98581.88;;;8.03;100.00
30081;BME280;16902;50.816;12.828;2022-10-26T23:44:48;98577.59;;;8.02;100.00
30081;BME280;16902;50.816;12.828;2022-10-26T23:49:50;98576.63;;;8.13;100.00
30081;BME280;16902;50.816;12.828;2022-10-26T23:54:52;98585.38;;;8.39;100.00
30081;BME280;16902;50.816;12.828;2022-10-26T23:59:53;98591.69;;;8.37;100.00
